Time;durP1;ratioP1;P1;durP2;ratioP2;P2;SDS_P1;SDS_P2;PMS_P1;PMS_P2;Temp;Humidity;BMP_temperature;BMP_pressure;BME280_temperature;BME280_humidity;BME280_pressure;Samples;Min_cycle;Max_cycle;Signal;HPM_P1;HPM_P2
2022/10/05 00:00:16;;;;;;;7.15;3.15;;;;;;;9.75;100.00;99285.91;5022449;28;20025;-59
2022/10/05 00:02:43;;;;;;;4.72;3.33;;;;;;;9.68;100.00;99293.06;5036991;28;20384;-59
2022/10/05 00:05:20;;;;;;;7.60;3.53;;;;;;;9.60;100.00;99291.28;5032267;28;20120;-59
2022/10/05 00:07:45;;;;;;;6.00;3.33;;;;;;;9.46;100.00;99295.66;5031839;28;20033;-59
2022/10/05 00:10:18;;;;;;;6.32;3.40;;;;;;;9.33;100.00;99293.59;5030916;28;20351;-59
2022/10/05 00:12:44;;;;;;;5.45;3.55;;;;;;;9.28;100.00;99296.00;5032437;28;20515;-59
2022/10/05 00:15:12;;;;;;;7.43;3.65;;;;;;;9.17;100.00;99288.34;5044947;22;20041;-69
2022/10/05 00:17:37;;;;;;;5.85;2.95;;;;;;;9.07;100.00;99290.44;5047121;28;20123;-69
2022/10/05 00:20:23;;;;;;;8.10;4.00;;;;;;;9.04;100.00;99280.00;5046229;28;20442;-69
2022/10/05 00:22:59;;;;;;;7.25;3.67;;;;;;;9.00;100.00;99291.16;5036493;28;20562;-69
2022/10/05 00:25:25;;;;;;;7.25;3.90;;;;;;;8.81;100.00;99270.06;5021746;28;20040;-69
2022/10/05 00:27:58;;;;;;;9.02;3.95;;;;;;;8.89;100.00;99291.59;5027810;28;20030;-69
2022/10/05 00:30:29;;;;;;;6.43;4.10;;;;;;;8.84;100.00;99282.38;5024315;28;20027;-69
2022/10/05 00:32:54;;;;;;;10.88;4.03;;;;;;;8.93;100.00;99286.66;5027602;28;20426;-69
2022/10/05 00:35:20;;;;;;;9.93;4.57;;;;;;;8.95;100.00;99280.06;5026994;28;20033;-69
2022/10/05 00:37:50;;;;;;;10.10;4.13;;;;;;;8.90;100.00;99284.31;5022486;28;20120;-69
2022/10/05 00:40:27;;;;;;;7.13;3.90;;;;;;;8.78;100.00;99282.06;5024111;28;20274;-69
2022/10/05 00:43:11;;;;;;;9.45;5.03;;;;;;;8.81;100.00;99282.72;5021362;28;20041;-69
2022/10/05 00:45:47;;;;;;;6.30;3.92;;;;;;;8.73;100.00;99279.06;5020284;28;20039;-69
2022/10/05 00:48:44;;;;;;;6.88;3.85;;;;;;;8.59;100.00;99276.28;5026120;28;20033;-69
2022/10/05 00:51:25;;;;;;;8.00;4.22;;;;;;;8.51;100.00;99272.66;5020936;28;20112;-69
2022/10/05 00:54:05;;;;;;;9.65;3.80;;;;;;;8.41;100.00;99274.75;5026307;28;20033;-69
2022/10/05 00:56:41;;;;;;;5.43;3.83;;;;;;;8.30;100.00;99283.16;5024454;28;20061;-69
2022/10/05 00:59:18;;;;;;;7.07;4.55;;;;;;;8.27;100.00;99280.84;5027669;28;20029;-69
2022/10/05 01:02:25;;;;;;;6.72;3.67;;;;;;;8.16;100.00;99289.31;5031754;28;20444;-69
2022/10/05 01:04:58;;;;;;;6.10;3.88;;;;;;;8.10;100.00;99291.72;5017476;28;20487;-69
2022/10/05 01:07:42;;;;;;;6.15;4.00;;;;;;;8.06;100.00;99287.66;5028074;28;20056;-69
2022/10/05 01:10:14;;;;;;;7.95;3.80;;;;;;;7.99;100.00;99285.84;5029218;28;20115;-69
2022/10/05 01:12:52;;;;;;;6.40;3.90;;;;;;;8.05;100.00;99290.56;5022713;28;20033;-69
2022/10/05 01:15:35;;;;;;;12.57;4.47;;;;;;;8.37;100.00;99294.09;5026653;28;20475;-69
2022/10/05 01:18:15;;;;;;;8.68;4.03;;;;;;;8.43;100.00;99285.31;5028705;28;20037;-69
2022/10/05 01:21:05;;;;;;;9.60;4.30;;;;;;;8.44;100.00;99293.25;5025872;28;20017;-69
2022/10/05 01:23:54;;;;;;;10.90;4.20;;;;;;;8.27;100.00;99289.75;5020448;28;20184;-69
2022/10/05 01:26:51;;;;;;;12.13;4.47;;;;;;;8.27;100.00;99289.75;5031067;28;20028;-69
2022/10/05 01:29:27;;;;;;;6.65;4.13;;;;;;;8.05;100.00;99286.00;5034189;28;20142;-69
2022/10/05 01:32:04;;;;;;;6.53;4.15;;;;;;;7.99;100.00;99275.94;5025976;28;20033;-69
2022/10/05 01:34:42;;;;;;;6.93;3.85;;;;;;;7.87;100.00;99275.47;5027085;28;20021;-69
2022/10/05 01:37:49;;;;;;;7.13;4.07;;;;;;;7.82;100.00;99279.69;5032156;28;20033;-69
2022/10/05 01:40:47;;;;;;;6.88;4.47;;;;;;;7.71;100.00;99272.00;5025390;28;20029;-69
2022/10/05 01:43:50;;;;;;;9.50;3.83;;;;;;;7.52;100.00;99263.31;5027994;28;20033;-69
2022/10/05 01:46:35;;;;;;;5.70;3.88;;;;;;;7.42;100.00;99257.28;5022199;28;20487;-69
2022/10/05 01:49:14;;;;;;;6.82;4.10;;;;;;;7.50;100.00;99269.88;5033461;28;20029;-69
2022/10/05 01:51:51;;;;;;;8.38;4.75;;;;;;;7.52;100.00;99274.06;5029148;28;20056;-69
2022/10/05 01:54:37;;;;;;;10.40;4.15;;;;;;;7.49;100.00;99268.16;5025131;28;20041;-69
2022/10/05 01:57:08;;;;;;;10.07;4.68;;;;;;;7.48;100.00;99278.09;5028282;28;20029;-69
2022/10/05 01:59:39;;;;;;;8.85;4.63;;;;;;;7.49;100.00;99274.38;5025848;28;20030;-69
2022/10/05 02:02:17;;;;;;;9.43;5.18;;;;;;;7.44;100.00;99276.75;5030542;28;20058;-69
2022/10/05 02:05:09;;;;;;;8.68;4.53;;;;;;;7.45;100.00;99276.59;5028045;28;20475;-69
2022/10/05 02:07:55;;;;;;;10.23;5.00;;;;;;;7.39;100.00;99271.91;5027133;28;20395;-69
2022/10/05 02:10:29;;;;;;;10.48;5.10;;;;;;;7.67;100.00;99266.94;5027722;28;20104;-69
2022/10/05 02:13:05;;;;;;;9.85;4.40;;;;;;;7.59;100.00;99240.03;5022203;28;20383;-69
2022/10/05 02:15:59;;;;;;;7.72;4.60;;;;;;;7.61;100.00;99258.72;5030124;28;20434;-69
2022/10/05 02:18:31;;;;;;;7.47;4.35;;;;;;;7.53;100.00;99253.38;5018389;28;20025;-69
2022/10/05 02:20:58;;;;;;;10.55;3.80;;;;;;;7.55;100.00;99251.34;5024409;28;20025;-69
2022/10/05 02:23:29;;;;;;;6.80;3.80;;;;;;;7.44;100.00;99244.44;5029717;28;20029;-69
2022/10/05 02:25:55;;;;;;;6.80;4.18;;;;;;;7.39;100.00;99238.78;5031245;28;20029;-70
2022/10/05 02:28:36;;;;;;;8.55;4.18;;;;;;;7.27;100.00;99245.53;5029420;28;20501;-69
2022/10/05 02:31:09;;;;;;;8.57;4.10;;;;;;;7.05;100.00;99218.31;5031294;28;20026;-67
2022/10/05 02:33:35;;;;;;;7.78;4.40;;;;;;;6.99;100.00;99224.38;5023414;28;20071;-67
2022/10/05 02:36:12;;;;;;;9.13;4.85;;;;;;;7.04;100.00;99243.53;5026913;28;20029;-67
2022/10/05 02:39:02;;;;;;;6.88;3.83;;;;;;;6.95;100.00;99253.47;5018597;28;20037;-67
2022/10/05 02:41:30;;;;;;;7.30;4.22;;;;;;;6.88;100.00;99260.53;5028609;28;20468;-67
2022/10/05 02:44:12;;;;;;;9.82;4.75;;;;;;;6.90;100.00;99268.44;5022516;28;20443;-67
2022/10/05 02:47:02;;;;;;;8.43;4.20;;;;;;;6.97;100.00;99264.06;5025559;28;20123;-69
2022/10/05 02:49:43;;;;;;;11.45;4.57;;;;;;;7.02;100.00;99267.06;5026862;28;20029;-69
2022/10/05 02:52:17;;;;;;;9.60;4.18;;;;;;;6.98;100.00;99280.03;5024110;28;20112;-69
2022/10/05 02:54:49;;;;;;;9.70;4.63;;;;;;;6.94;100.00;99277.81;5028352;28;20152;-69
2022/10/05 02:57:43;;;;;;;11.40;5.80;;;;;;;7.16;100.00;99276.31;5025738;28;20021;-69
2022/10/05 03:00:14;;;;;;;11.38;5.00;;;;;;;7.36;100.00;99274.09;5033219;28;20418;-69
2022/10/05 03:02:46;;;;;;;10.18;4.47;;;;;;;7.32;100.00;99272.75;5029304;28;20036;-69
2022/10/05 03:05:30;;;;;;;7.30;4.75;;;;;;;7.24;100.00;99271.75;5025556;28;20067;-69
2022/10/05 03:08:17;;;;;;;9.75;5.15;;;;;;;7.20;100.00;99267.75;5028980;28;20033;-69
2022/10/05 03:10:52;;;;;;;9.48;4.50;;;;;;;7.21;100.00;99269.41;5022838;28;20071;-69
2022/10/05 03:13:33;;;;;;;9.00;4.53;;;;;;;7.09;100.00;99260.00;5026999;28;20045;-72
2022/10/05 03:16:08;;;;;;;13.30;4.22;;;;;;;6.97;100.00;99256.00;5015915;28;20107;-70
2022/10/05 03:18:45;;;;;;;10.45;4.85;;;;;;;7.00;100.00;99259.19;5022819;28;20025;-70
2022/10/05 03:22:02;;;;;;;10.23;5.43;;;;;;;6.79;100.00;99222.03;5025878;28;20044;-71
2022/10/05 03:24:46;;;;;;;10.85;4.55;;;;;;;7.00;100.00;99250.28;5025288;28;20048;-72
2022/10/05 03:27:30;;;;;;;8.23;4.88;;;;;;;7.02;100.00;99243.72;5028027;28;20025;-73
2022/10/05 03:30:15;;;;;;;10.05;5.47;;;;;;;7.03;100.00;99237.31;5027322;28;20492;-73
2022/10/05 03:32:57;;;;;;;9.43;5.05;;;;;;;6.90;100.00;99238.84;5025066;28;20096;-71
2022/10/05 03:35:30;;;;;;;10.35;4.85;;;;;;;6.70;100.00;99211.44;5028606;28;20032;-70
2022/10/05 03:38:07;;;;;;;8.05;5.03;;;;;;;6.74;100.00;99226.25;5027270;28;20120;-70
2022/10/05 03:40:41;;;;;;;10.35;5.07;;;;;;;6.75;100.00;99228.75;5026644;28;20022;-70
2022/10/05 03:43:30;;;;;;;7.18;4.68;;;;;;;6.73;100.00;99217.34;5026423;28;20163;-70
2022/10/05 03:46:05;;;;;;;8.40;4.78;;;;;;;6.65;100.00;99222.69;5021304;28;20553;-70
2022/10/05 03:48:51;;;;;;;9.57;5.00;;;;;;;6.56;100.00;99218.34;5023728;28;20672;-70
2022/10/05 03:51:31;;;;;;;11.93;5.10;;;;;;;6.54;100.00;99207.75;5029476;28;20125;-73
2022/10/05 03:53:58;;;;;;;;;;;;;;;6.50;100.00;99213.66;5029126;28;20455;-73
2022/10/05 03:56:33;;;;;;;9.15;4.40;;;;;;;6.46;100.00;99206.91;5027447;28;19928;-71
2022/10/05 03:59:08;;;;;;;10.00;4.10;;;;;;;6.50;100.00;99217.16;5020519;28;20021;-71
2022/10/05 04:01:46;;;;;;;7.35;4.60;;;;;;;6.43;100.00;99218.00;5027597;28;20040;-70
2022/10/05 04:04:19;;;;;;;17.52;5.13;;;;;;;6.35;100.00;99206.22;5027172;28;20112;-72
2022/10/05 04:06:48;;;;;;;9.20;5.22;;;;;;;6.38;100.00;99220.34;5031472;28;20033;-73
2022/10/05 04:09:29;;;;;;;12.18;5.20;;;;;;;6.35;100.00;99205.38;5016778;28;20067;-72
2022/10/05 04:12:16;;;;;;;8.05;5.13;;;;;;;6.42;100.00;99227.03;5021730;28;20560;-76
2022/10/05 04:14:53;;;;;;;7.57;4.78;;;;;;;6.26;100.00;99196.50;5025718;28;20033;-72
2022/10/05 04:17:35;;;;;;;10.57;5.55;;;;;;;6.47;100.00;99219.31;5023733;28;20025;-71
2022/10/05 04:20:17;;;;;;;8.00;4.75;;;;;;;6.26;100.00;99193.81;5027212;28;20025;-70
2022/10/05 04:23:23;;;;;;;7.70;4.32;;;;;;;6.38;100.00;99220.34;5025169;28;20026;-74
2022/10/05 04:25:52;;;;;;;8.43;4.35;;;;;;;6.34;100.00;99219.81;5002264;28;20091;-73
2022/10/05 04:28:51;;;;;;;16.15;5.90;;;;;;;6.37;100.00;99211.44;5028470;28;20025;-73
2022/10/05 04:31:34;;;;;;;6.80;4.60;;;;;;;6.34;100.00;99209.94;5011814;28;20041;-73
2022/10/05 04:34:10;;;;;;;10.07;5.03;;;;;;;6.09;100.00;99184.84;5023061;28;20041;-74
2022/10/05 04:36:47;;;;;;;8.82;4.85;;;;;;;6.29;100.00;99204.22;5017365;28;20537;-74
2022/10/05 04:39:12;;;;;;;10.23;5.32;;;;;;;6.33;100.00;99216.28;5024703;28;20026;-72
2022/10/05 04:42:01;;;;;;;11.45;5.30;;;;;;;5.98;100.00;99160.19;5026865;28;20073;-74
2022/10/05 04:44:48;;;;;;;13.48;5.70;;;;;;;6.42;100.00;99225.22;5029793;28;20029;-68
2022/10/05 04:47:44;;;;;;;10.82;6.10;;;;;;;6.57;100.00;99209.25;5023310;28;20105;-68
2022/10/05 04:50:27;;;;;;;10.75;5.45;;;;;;;6.56;100.00;99229.09;5026248;28;20100;-68
2022/10/05 04:52:58;;;;;;;10.88;4.72;;;;;;;6.52;100.00;99238.47;5029723;28;20052;-73
2022/10/05 04:55:38;;;;;;;7.97;4.70;;;;;;;6.32;100.00;99217.31;5027912;28;20095;-73
2022/10/05 04:58:30;;;;;;;8.45;4.78;;;;;;;6.39;100.00;99238.97;5027579;28;20475;-75
2022/10/05 05:01:17;;;;;;;8.15;4.70;;;;;;;6.37;100.00;99232.94;5030739;28;20029;-75
2022/10/05 05:04:14;;;;;;;9.55;4.05;;;;;;;6.51;100.00;99236.81;5022316;28;20494;-74
2022/10/05 05:06:53;;;;;;;10.02;4.28;;;;;;;6.29;100.00;99228.41;5027998;28;20025;-71
2022/10/05 05:10:00;;;;;;;7.80;4.07;;;;;;;6.17;100.00;99237.75;5022281;28;20028;-71
2022/10/05 05:12:47;;;;;;;7.28;4.15;;;;;;;6.15;100.00;99239.75;5020312;28;20041;-72
2022/10/05 05:15:21;;;;;;;7.97;4.72;;;;;;;6.20;100.00;99237.44;5028777;28;20026;-71
2022/10/05 05:18:02;;;;;;;14.13;4.13;;;;;;;6.20;100.00;99253.56;5025033;28;20930;-73
2022/10/05 05:20:46;;;;;;;7.63;4.68;;;;;;;6.39;100.00;99251.56;5027184;28;20017;-73
2022/10/05 05:23:29;;;;;;;12.00;4.43;;;;;;;6.58;100.00;99249.44;5026484;28;20121;-73
2022/10/05 05:26:07;;;;;;;8.70;4.65;;;;;;;6.55;100.00;99249.75;5025964;28;20471;-72
2022/10/05 05:29:13;;;;;;;9.00;4.72;;;;;;;6.57;100.00;99260.34;5023697;28;20037;-69
2022/10/05 05:31:53;;;;;;;12.43;5.05;;;;;;;6.49;100.00;99269.22;5030951;28;20029;-74
2022/10/05 05:34:28;;;;;;;12.57;4.78;;;;;;;6.46;100.00;99269.56;5023688;28;20037;-71
2022/10/05 05:37:17;;;;;;;14.07;5.13;;;;;;;6.45;100.00;99269.75;5042137;28;20035;-71
2022/10/05 05:40:08;;;;;;;10.32;4.43;;;;;;;6.58;100.00;99276.31;5025829;28;20034;-69
2022/10/05 05:42:57;;;;;;;9.98;4.90;;;;;;;6.44;100.00;99265.34;5027879;28;20422;-70
2022/10/05 05:45:27;;;;;;;;;;;;;;;6.67;100.00;99279.00;5022792;28;20026;-71
2022/10/05 05:47:53;;;;;;;12.15;4.82;;;;;;;6.63;100.00;99278.50;5020429;28;19912;-70
2022/10/05 05:50:19;;;;;;;8.75;4.93;;;;;;;6.77;100.00;99280.53;5029841;28;20025;-71
2022/10/05 05:52:54;;;;;;;9.05;5.65;;;;;;;7.02;100.00;99275.13;5020224;28;20024;-71
2022/10/05 05:55:23;;;;;;;10.18;5.57;;;;;;;8.15;100.00;99284.94;5030555;28;20029;-76
2022/10/05 05:58:01;;;;;;;9.18;5.03;;;;;;;9.41;100.00;99266.50;5025499;28;20634;-71
2022/10/05 06:01:09;;;;;;;9.55;4.55;;;;;;;10.47;100.00;99247.28;5027077;28;21852;-75
2022/10/05 06:03:47;;;;;;;7.20;3.75;;;;;;;11.41;100.00;99242.50;5036998;28;20125;-73
2022/10/05 06:06:15;;;;;;;6.88;4.07;;;;;;;12.45;100.00;99248.88;5024954;28;20022;-71
2022/10/05 06:08:55;;;;;;;6.38;3.40;;;;;;;12.46;100.00;99226.94;5032117;28;20372;-78
2022/10/05 06:11:41;;;;;;;5.03;3.13;;;;;;;13.25;100.00;99238.94;5025676;28;20575;-76
2022/10/05 06:14:40;;;;;;;5.57;3.50;;;;;;;13.32;100.00;99247.94;5024409;28;20021;-73
2022/10/05 06:17:12;;;;;;;7.93;2.70;;;;;;;14.68;100.00;99233.47;5027137;28;20061;-72
2022/10/05 06:19:39;;;;;;;4.80;2.47;;;;;;;15.00;100.00;99246.25;5026772;28;20029;-73
2022/10/05 06:22:33;;;;;;;4.95;2.85;;;;;;;14.94;95.90;99258.88;5030557;28;20056;-71
2022/10/05 06:25:11;;;;;;;6.32;2.85;;;;;;;15.31;89.47;99239.91;5024950;28;20030;-79
2022/10/05 06:28:10;;;;;;;9.20;3.08;;;;;;;15.69;87.10;99238.94;5027867;28;20475;-73
2022/10/05 06:30:49;;;;;;;6.93;2.60;;;;;;;16.42;79.52;99268.09;5031248;28;20040;-73
2022/10/05 06:33:37;;;;;;;5.35;2.83;;;;;;;16.98;77.01;99264.19;5029751;28;20034;-73
2022/10/05 06:36:15;;;;;;;3.97;2.58;;;;;;;17.43;72.09;99257.38;5028417;28;20087;-66
2022/10/05 06:39:09;;;;;;;3.95;2.40;;;;;;;17.93;67.73;99270.59;5025311;28;20025;-70
2022/10/05 06:41:58;;;;;;;3.33;2.40;;;;;;;17.56;69.56;99264.53;5028944;28;20029;-68
2022/10/05 06:44:44;;;;;;;9.45;2.72;;;;;;;18.69;69.02;99267.78;5024750;28;20033;-72
2022/10/05 06:47:22;;;;;;;9.02;4.93;;;;;;;19.78;64.40;99263.88;5025054;28;20571;-69
2022/10/05 06:50:03;;;;;;;5.32;3.70;;;;;;;20.32;61.03;99264.91;5025181;28;20053;-76
2022/10/05 06:52:40;;;;;;;3.92;3.00;;;;;;;21.07;55.50;99256.13;5030372;28;20112;-81
2022/10/05 06:55:24;;;;;;;5.60;2.90;;;;;;;21.94;53.64;99252.13;5027168;28;20451;-76
2022/10/05 06:57:58;;;;;;;5.45;2.80;;;;;;;22.12;51.96;99263.78;5028004;28;20038;-75
2022/10/05 07:00:31;;;;;;;3.58;2.85;;;;;;;21.67;50.91;99275.09;5029222;28;20537;-69
2022/10/05 07:03:08;;;;;;;10.85;2.70;;;;;;;21.48;51.96;99271.06;5028210;28;20040;-74
2022/10/05 07:05:58;;;;;;;6.22;3.00;;;;;;;20.17;54.01;99272.94;5033173;28;20025;-71
2022/10/05 07:08:30;;;;;;;4.55;3.10;;;;;;;20.39;56.02;99275.72;5030457;28;20479;-71
2022/10/05 07:11:20;;;;;;;3.95;3.05;;;;;;;19.90;56.28;99278.34;5036523;28;20431;-73
2022/10/05 07:13:45;;;;;;;6.65;2.65;;;;;;;20.20;54.62;99283.44;5020660;28;20025;-71
2022/10/05 07:16:19;;;;;;;6.97;2.78;;;;;;;20.13;55.54;99282.81;5029946;28;20533;-69
2022/10/05 07:19:02;;;;;;;3.75;2.55;;;;;;;19.15;59.01;99285.06;5025614;28;20033;-68
2022/10/05 07:21:55;;;;;;;4.75;2.55;;;;;;;19.66;59.90;99283.19;5028453;28;20036;-68
2022/10/05 07:24:41;;;;;;;7.90;2.90;;;;;;;18.86;61.40;99287.84;5025633;28;20037;-68
2022/10/05 07:27:22;;;;;;;4.72;2.55;;;;;;;19.20;61.32;99287.91;5023467;28;20041;-77
2022/10/05 07:30:05;;;;;;;6.43;2.40;;;;;;;20.57;56.98;99288.34;5025180;28;20436;-71
2022/10/05 07:32:53;;;;;;;4.03;2.70;;;;;;;20.31;59.49;99292.66;5022619;28;20021;-72
2022/10/05 07:38:43;;;;;;;6.13;2.55;;;;;;;20.37;59.78;99283.38;5023486;28;20175;-65
2022/10/05 07:41:24;;;;;;;5.90;2.58;;;;;;;21.77;56.16;99282.59;5018243;28;20026;-65
2022/10/05 07:44:11;;;;;;;8.88;3.05;;;;;;;22.39;53.01;99277.44;5026781;28;20056;-65
2022/10/05 07:46:40;;;;;;;2.90;2.05;;;;;;;22.62;54.08;99263.19;5026653;28;20036;-71
2022/10/05 07:49:20;;;;;;;4.33;2.43;;;;;;;23.05;52.64;99279.59;5030987;28;20032;-71
2022/10/05 07:52:03;;;;;;;4.47;2.35;;;;;;;23.80;49.15;99289.00;5022247;28;20654;-71
2022/10/05 07:54:32;;;;;;;3.78;2.40;;;;;;;24.55;49.52;99282.75;5068791;22;20052;-75
2022/10/05 07:57:02;;;;;;;4.88;2.33;;;;;;;24.84;47.26;99285.63;5046490;28;20036;-70
2022/10/05 07:59:40;;;;;;;4.90;2.30;;;;;;;24.15;48.86;99289.22;5045581;28;20028;-76
2022/10/05 08:02:22;;;;;;;13.13;2.90;;;;;;;25.91;44.82;99289.56;5042972;28;20017;-73
2022/10/05 08:05:03;;;;;;;8.38;3.17;;;;;;;24.78;46.07;99292.28;5025631;28;20055;-75
2022/10/05 08:07:33;;;;;;;16.42;3.53;;;;;;;24.07;47.44;99296.13;5025054;28;20029;-71
2022/10/05 08:10:23;;;;;;;3.75;2.38;;;;;;;24.08;48.18;99295.06;5024353;28;20028;-73
2022/10/05 08:13:16;;;;;;;3.28;2.53;;;;;;;23.90;47.86;99288.19;5030457;28;20052;-75
2022/10/05 08:15:47;;;;;;;3.83;2.70;;;;;;;25.48;45.81;99289.34;5018834;28;20080;-70
2022/10/05 08:18:23;;;;;;;3.88;2.55;;;;;;;26.02;43.73;99282.78;5025474;28;20107;-71
2022/10/05 08:20:53;;;;;;;4.57;2.40;;;;;;;27.32;41.50;99281.66;5021422;28;20038;-70
2022/10/05 08:23:34;;;;;;;2.80;2.00;;;;;;;29.08;39.46;99277.19;5018181;28;20467;-72
2022/10/05 08:26:22;;;;;;;5.53;2.42;;;;;;;27.95;41.45;99282.28;5022563;28;20410;-71
2022/10/05 08:28:52;;;;;;;4.80;2.45;;;;;;;28.25;40.22;99274.50;5021585;28;20087;-71
2022/10/05 08:31:40;;;;;;;3.80;2.10;;;;;;;27.95;41.38;99271.16;5028797;28;20032;-72
2022/10/05 08:34:16;;;;;;;4.15;2.45;;;;;;;29.11;39.49;99269.03;5025139;28;20510;-73
2022/10/05 08:37:07;;;;;;;3.67;2.17;;;;;;;28.09;40.43;99271.19;5021092;28;20382;-75
2022/10/05 08:39:46;;;;;;;3.17;2.03;;;;;;;28.17;40.51;99270.47;5026973;28;20139;-72
2022/10/05 08:42:30;;;;;;;3.20;2.00;;;;;;;28.28;41.01;99268.28;5028873;28;20049;-78
2022/10/05 08:45:13;;;;;;;5.00;2.08;;;;;;;28.09;40.43;99272.00;5024169;28;20032;-75
2022/10/05 08:48:02;;;;;;;3.20;2.42;;;;;;;28.83;39.33;99262.69;5028509;28;20117;-69
2022/10/05 08:50:38;;;;;;;2.78;2.03;;;;;;;28.18;40.77;99263.75;5029912;28;20128;-70
2022/10/05 08:53:12;;;;;;;5.50;2.08;;;;;;;28.43;40.33;99265.19;5026369;28;20025;-71
2022/10/05 08:55:40;;;;;;;3.90;1.80;;;;;;;27.84;41.25;99261.34;5020100;28;20033;-71
2022/10/05 08:58:21;;;;;;;2.70;2.03;;;;;;;27.33;42.30;99257.50;5027949;28;20025;-73
2022/10/05 09:00:52;;;;;;;5.47;2.17;;;;;;;26.75;43.14;99241.97;5030339;28;20029;-74
2022/10/05 09:03:34;;;;;;;3.08;1.80;;;;;;;26.12;44.65;99253.28;5022153;28;20036;-74
2022/10/05 09:06:13;;;;;;;4.10;2.25;;;;;;;26.99;42.69;99244.66;5020465;28;20018;-74
2022/10/05 09:09:09;;;;;;;2.67;1.88;;;;;;;27.72;41.78;99251.53;5020334;28;20028;-74
2022/10/05 09:11:40;;;;;;;4.22;2.35;;;;;;;27.35;42.26;99246.88;5019513;28;20033;-72
2022/10/05 09:14:38;;;;;;;5.35;2.50;;;;;;;26.65;43.62;99239.34;5025636;28;20025;-72
2022/10/05 09:17:45;;;;;;;5.17;2.50;;;;;;;27.17;43.41;99245.81;5024422;28;20033;-72
2022/10/05 09:20:29;;;;;;;5.22;2.13;;;;;;;26.84;43.75;99242.94;5021402;28;20038;-72
2022/10/05 09:23:00;;;;;;;4.30;2.20;;;;;;;26.33;43.86;99249.16;5029536;28;20049;-73
2022/10/05 09:25:53;;;;;;;4.10;2.42;;;;;;;27.27;42.84;99233.69;5031767;28;20172;-73
2022/10/05 09:28:31;;;;;;;2.90;2.10;;;;;;;28.58;41.23;99239.84;5034305;28;20025;-73
2022/10/05 09:31:09;;;;;;;3.22;1.98;;;;;;;28.56;40.96;99235.75;5028586;28;20064;-73
2022/10/05 09:34:03;;;;;;;6.72;2.40;;;;;;;28.69;40.87;99231.25;5031718;28;20300;-73
2022/10/05 09:36:31;;;;;;;4.45;2.42;;;;;;;28.88;40.35;99242.25;5033862;28;20021;-72
2022/10/05 09:39:02;;;;;;;3.73;2.00;;;;;;;27.16;43.16;99233.00;5027489;28;20064;-72
2022/10/05 09:41:46;;;;;;;3.53;2.00;;;;;;;28.70;40.70;99230.94;5032413;28;20087;-73
2022/10/05 09:44:30;;;;;;;1.98;1.77;;;;;;;28.36;41.54;99225.81;5026055;28;20021;-73
2022/10/05 09:47:16;;;;;;;8.15;2.25;;;;;;;27.89;42.64;99223.16;5025620;28;20058;-73
2022/10/05 09:50:31;;;;;;;3.13;2.10;;;;;;;28.25;41.32;99225.22;5035169;28;20087;-73
2022/10/05 09:53:20;;;;;;;3.28;1.98;;;;;;;29.08;40.43;99221.47;5029252;28;20479;-72
2022/10/05 09:55:52;;;;;;;4.93;2.10;;;;;;;29.45;40.87;99217.47;5032779;28;20449;-73
2022/10/05 09:58:47;;;;;;;6.50;2.03;;;;;;;29.84;39.59;99219.53;5030180;28;20028;-73
2022/10/05 10:01:21;;;;;;;3.13;1.70;;;;;;;30.30;38.65;99214.63;5029669;28;20025;-73
2022/10/05 10:04:12;;;;;;;3.47;2.20;;;;;;;29.69;39.44;99206.00;5025432;28;20048;-72
2022/10/05 10:07:13;;;;;;;1.92;1.70;;;;;;;28.90;40.52;99201.81;5026651;28;20032;-73
2022/10/05 10:09:55;;;;;;;2.97;2.00;;;;;;;28.14;41.82;99207.91;5049306;28;20398;-73
2022/10/05 10:12:45;;;;;;;2.88;1.92;;;;;;;28.96;40.71;99205.28;5035244;28;20056;-72
2022/10/05 10:15:29;;;;;;;3.60;1.75;;;;;;;29.49;40.28;99205.34;5032908;28;20021;-72
2022/10/05 10:18:19;;;;;;;3.38;1.90;;;;;;;28.73;40.89;99196.09;5030578;28;20033;-73
2022/10/05 10:21:00;;;;;;;7.40;2.08;;;;;;;29.17;40.21;99206.47;5027411;28;20026;-72
2022/10/05 10:23:59;;;;;;;4.35;1.50;;;;;;;29.30;40.63;99195.56;5028766;28;20488;-75
2022/10/05 10:26:33;;;;;;;2.97;1.92;;;;;;;29.45;40.32;99184.84;5035498;28;20486;-72
2022/10/05 10:29:44;;;;;;;4.15;1.90;;;;;;;29.78;39.43;99192.91;5035814;28;20033;-72
2022/10/05 10:32:25;;;;;;;2.60;1.38;;;;;;;29.48;39.48;99186.19;5023471;28;20505;-73
2022/10/05 10:35:05;;;;;;;2.38;1.40;;;;;;;29.74;39.87;99177.13;5023345;28;20040;-72
2022/10/05 10:37:34;;;;;;;1.92;1.23;;;;;;;30.23;38.85;99176.00;5043742;28;20026;-73
2022/10/05 10:39:59;;;;;;;;;;;;;;;29.70;39.13;99177.78;5025782;28;20491;-73
2022/10/05 10:43:07;;;;;;;2.07;1.30;;;;;;;29.44;40.26;99176.78;5031154;28;20004;-73
2022/10/05 10:45:49;;;;;;;8.60;1.50;;;;;;;29.44;39.96;99171.22;5021617;28;20053;-72
2022/10/05 10:48:17;;;;;;;4.72;1.50;;;;;;;29.97;39.22;99180.66;5018477;28;20037;-73
2022/10/05 10:51:24;;;;;;;2.05;1.40;;;;;;;29.70;39.29;99168.59;5028433;28;20029;-72
2022/10/05 10:54:02;;;;;;;2.90;1.10;;;;;;;30.10;38.06;99163.81;5031796;28;20071;-72
2022/10/05 10:56:49;;;;;;;4.87;1.30;;;;;;;29.34;39.86;99165.91;5026663;28;20028;-70
2022/10/05 10:59:51;;;;;;;3.00;1.45;;;;;;;29.70;39.12;99158.25;5030082;28;20288;-69
2022/10/05 11:02:41;;;;;;;1.58;1.33;;;;;;;29.43;39.39;99156.47;5027353;28;20033;-67
2022/10/05 11:05:22;;;;;;;3.33;1.42;;;;;;;29.56;38.62;99142.75;5026008;28;20127;-69
2022/10/05 11:08:24;;;;;;;2.78;1.55;;;;;;;29.46;39.61;99141.88;5021853;28;20029;-67
2022/10/05 11:11:11;;;;;;;1.85;1.30;;;;;;;30.76;37.54;99140.59;5030127;28;20033;-67
2022/10/05 11:14:15;;;;;;;3.47;1.10;;;;;;;31.84;36.06;99141.34;5029931;28;20025;-67
2022/10/05 11:16:55;;;;;;;3.92;1.20;;;;;;;31.30;36.01;99145.81;5034133;28;20042;-68
2022/10/05 11:19:50;;;;;;;19.38;1.67;;;;;;;31.84;35.63;99126.53;5023576;28;20095;-67
2022/10/05 11:22:33;;;;;;;1.15;0.82;;;;;;;32.30;34.43;99130.41;5022891;28;20041;-67
2022/10/05 11:25:30;;;;;;;2.75;1.67;;;;;;;31.32;35.32;99127.53;5026230;28;20025;-67
2022/10/05 11:28:14;;;;;;;1.70;0.90;;;;;;;31.92;34.75;99128.47;5016598;28;20037;-67
2022/10/05 11:31:11;;;;;;;1.58;1.25;;;;;;;31.35;35.68;99124.06;5035089;28;20021;-66
2022/10/05 11:33:57;;;;;;;1.50;1.08;;;;;;;30.33;37.68;99125.47;5020624;28;20045;-67
2022/10/05 11:37:00;;;;;;;5.03;0.98;;;;;;;31.27;35.45;99124.91;5023961;28;20076;-67
2022/10/05 11:39:32;;;;;;;4.25;1.10;;;;;;;31.70;34.61;99120.34;5020863;28;20041;-66
2022/10/05 11:42:03;;;;;;;1.42;1.00;;;;;;;31.67;34.70;99119.03;5025383;28;20029;-67
2022/10/05 11:44:46;;;;;;;1.73;1.10;;;;;;;31.90;34.85;99114.00;5024594;28;20036;-67
2022/10/05 11:47:28;;;;;;;2.35;1.00;;;;;;;31.30;34.97;99113.06;5025847;28;20104;-67
2022/10/05 11:50:19;;;;;;;2.50;1.02;;;;;;;32.47;33.36;99099.50;5024696;28;20026;-67
2022/10/05 11:53:12;;;;;;;1.92;0.98;;;;;;;32.25;33.78;99097.00;5021029;28;20048;-67
2022/10/05 11:56:03;;;;;;;2.83;0.85;;;;;;;32.77;33.06;99092.97;5027700;28;20033;-67
2022/10/05 11:58:49;;;;;;;1.52;0.80;;;;;;;33.04;31.98;99094.38;5022852;28;20519;-68
2022/10/05 12:01:19;;;;;;;3.38;0.93;;;;;;;32.17;33.94;99095.91;5023744;28;20692;-67
2022/10/05 12:04:15;;;;;;;2.38;0.70;;;;;;;33.45;32.24;99087.81;5023469;28;20033;-70
2022/10/05 12:07:06;;;;;;;3.15;1.17;;;;;;;33.24;33.08;99096.31;5017968;28;20037;-68
2022/10/05 12:10:13;;;;;;;1.77;1.00;;;;;;;32.66;33.61;99095.38;5020336;28;20149;-68
2022/10/05 12:12:56;;;;;;;2.28;0.98;;;;;;;32.78;33.75;99087.03;5024450;28;20029;-68
2022/10/05 12:15:31;;;;;;;3.95;1.13;;;;;;;32.28;34.46;99083.16;5029398;28;20372;-68
2022/10/05 12:18:07;;;;;;;1.52;1.00;;;;;;;32.33;35.28;99084.09;5022699;28;20033;-68
2022/10/05 12:20:40;;;;;;;2.67;0.80;;;;;;;32.85;34.16;99087.28;5013296;28;20499;-70
2022/10/05 12:23:33;;;;;;;5.05;1.33;;;;;;;33.36;32.95;99071.09;5023450;28;20095;-70
2022/10/05 12:26:13;;;;;;;2.15;0.93;;;;;;;33.94;32.13;99076.59;5016835;28;20120;-69
2022/10/05 12:28:48;;;;;;;1.88;1.00;;;;;;;33.78;32.19;99070.09;5026257;28;20068;-70
2022/10/05 12:31:24;;;;;;;1.85;0.90;;;;;;;33.67;32.87;99075.34;5020032;28;20175;-69
2022/10/05 12:34:02;;;;;;;3.65;1.00;;;;;;;33.88;32.38;99074.38;5024460;28;20060;-70
2022/10/05 12:36:37;;;;;;;2.40;1.17;;;;;;;33.94;33.08;99062.56;5024961;28;20112;-70
2022/10/05 12:39:20;;;;;;;2.10;0.85;;;;;;;33.97;32.75;99061.88;5024944;28;20029;-70
2022/10/05 12:41:45;;;;;;;4.25;1.08;;;;;;;33.36;33.38;99061.88;5025243;28;20037;-70